Terminal Aerodrome Forecast
Issued by NWS Austin/San Antonio, TX

Home | Current Version | Previous Version | Text Only | Print | Product List | Glossary On
Versions: 1 2 3 4 5 6 7 8 9 10 11 12 13 14 15 16 17 18 19 20 21 22 23 24 25 26 27 28
000
FTUS44 KEWX 290204 AAB
TAFAUS
TAF AMD
KAUS 290204Z 2902/3006 15011KT P6SM FEW080
     FM290400 17012KT P6SM BKN018
     FM290800 28025G35KT 3SM TSRA BR OVC012CB
     FM291000 VRB05KT P6SM SCT040
     FM291200 22007KT P6SM FEW250
     FM291700 22014KT P6SM FEW250
     FM300100 19006KT P6SM FEW250=

USA.gov is the U.S. government's official web portal to all federal, state and local government web resources and services.